createdAt,value
2022-11-21T00:01:37.456Z,97796.03
2022-11-21T00:04:41.615Z,97796.16
2022-11-21T00:07:45.936Z,97786.41
2022-11-21T00:10:48.909Z,97782.28
2022-11-21T00:13:51.507Z,97782.13
2022-11-21T00:16:57.286Z,97783.84
2022-11-21T00:20:01.563Z,97775.47
2022-11-21T00:23:04.378Z,97772.75
2022-11-21T00:26:07.190Z,97768.78
2022-11-21T00:29:10.180Z,97766.22
2022-11-21T00:32:12.761Z,97755.56
2022-11-21T00:35:19.617Z,97751.22
2022-11-21T00:38:24.256Z,97756.63
2022-11-21T00:41:26.824Z,97747.34
2022-11-21T00:44:29.660Z,97744.91
2022-11-21T00:47:32.478Z,97731.69
2022-11-21T00:50:36.477Z,97726.72
2022-11-21T00:53:39.016Z,97740.16
2022-11-21T00:56:41.948Z,97731.97
2022-11-21T00:59:44.618Z,97710.91
2022-11-21T01:02:47.172Z,97718.19
2022-11-21T01:05:51.100Z,97720.00
2022-11-21T01:08:53.645Z,97734.28
2022-11-21T01:11:56.337Z,97712.97
2022-11-21T01:14:59.020Z,97718.72
2022-11-21T01:18:01.599Z,97727.03
2022-11-21T01:21:07.556Z,97731.47
2022-11-21T01:24:11.882Z,97721.16
2022-11-21T01:27:14.488Z,97730.78
2022-11-21T01:30:17.381Z,97718.38
2022-11-21T01:33:20.058Z,97718.19
2022-11-21T01:36:25.459Z,97715.44
2022-11-21T01:39:28.116Z,97721.59
2022-11-21T01:42:30.763Z,97728.41
2022-11-21T01:45:53.497Z,97711.72
2022-11-21T01:48:59.422Z,97708.88
2022-11-21T01:52:06.352Z,97702.16
2022-11-21T01:55:11.305Z,97707.94
2022-11-21T01:58:14.633Z,97706.59
2022-11-21T02:01:17.549Z,97705.84
2022-11-21T02:04:20.898Z,97698.19
2022-11-21T02:07:25.881Z,97696.72
2022-11-21T02:10:28.657Z,97688.94
2022-11-21T02:13:31.722Z,97700.41
2022-11-21T02:16:34.865Z,97687.34
2022-11-21T02:19:46.032Z,97694.78
2022-11-21T02:22:55.663Z,97697.00
2022-11-21T02:25:59.772Z,97692.75
2022-11-21T02:29:02.445Z,97689.38
2022-11-21T02:32:06.291Z,97694.53
2022-11-21T02:35:09.611Z,97691.66
2022-11-21T02:38:19.567Z,97681.13
2022-11-21T02:41:26.568Z,97687.53
2022-11-21T02:44:33.718Z,97694.16
2022-11-21T02:47:37.330Z,97691.53
2022-11-21T02:50:41.424Z,97686.53
2022-11-21T02:53:43.984Z,97681.56
2022-11-21T02:56:48.068Z,97682.13
2022-11-21T02:59:50.650Z,97679.28
2022-11-21T03:02:54.387Z,97663.09
2022-11-21T03:05:56.883Z,97653.97
2022-11-21T03:08:59.673Z,97654.56
2022-11-21T03:12:08.157Z,97653.91
2022-11-21T03:15:13.382Z,97653.84
2022-11-21T03:18:16.014Z,97654.16
2022-11-21T03:21:18.992Z,97639.75
2022-11-21T03:24:21.610Z,97640.41
2022-11-21T03:27:25.658Z,97648.53
2022-11-21T03:30:28.301Z,97654.31
2022-11-21T03:33:30.892Z,97648.28
2022-11-21T03:36:33.606Z,97666.94
2022-11-21T03:39:36.476Z,97656.09
2022-11-21T03:42:40.380Z,97651.03
2022-11-21T03:45:43.023Z,97650.47
2022-11-21T03:48:45.675Z,97648.44
2022-11-21T03:51:48.318Z,97647.97
2022-11-21T03:54:51.022Z,97638.13
2022-11-21T03:57:55.004Z,97646.56
2022-11-21T04:00:57.764Z,97649.13
2022-11-21T04:04:00.484Z,97644.66
2022-11-21T04:07:04.790Z,97646.84
2022-11-21T04:10:08.244Z,97635.69
2022-11-21T04:13:12.224Z,97642.88
2022-11-21T04:16:14.940Z,97643.16
2022-11-21T04:19:17.654Z,97649.91
2022-11-21T04:22:20.309Z,97634.88
2022-11-21T04:25:22.958Z,97637.75
2022-11-21T04:28:27.153Z,97640.78
2022-11-21T04:31:29.775Z,97637.06
2022-11-21T04:34:32.355Z,97642.97
2022-11-21T04:37:35.283Z,97652.75
2022-11-21T04:40:38.276Z,97654.00
2022-11-21T04:43:42.362Z,97642.81
2022-11-21T04:46:45.132Z,97646.16
2022-11-21T04:49:47.702Z,97644.25
2022-11-21T04:52:50.971Z,97635.63
2022-11-21T04:55:53.738Z,97642.81
2022-11-21T04:58:57.711Z,97638.53
2022-11-21T05:02:00.777Z,97642.19
2022-11-21T05:05:03.418Z,97642.38
2022-11-21T05:08:06.280Z,97636.31
2022-11-21T05:11:26.219Z,97643.50
2022-11-21T05:14:30.562Z,97643.16
2022-11-21T05:17:33.408Z,97626.56
2022-11-21T05:20:37.054Z,97626.06
2022-11-21T05:23:39.772Z,97635.44
2022-11-21T05:26:42.789Z,97641.09
2022-11-21T05:29:47.224Z,97640.19
2022-11-21T05:32:50.016Z,97637.47
2022-11-21T05:35:52.783Z,97643.75
2022-11-21T05:38:55.450Z,97643.69
2022-11-21T05:42:02.739Z,97648.75
2022-11-21T05:45:07.708Z,97654.53
2022-11-21T05:48:10.379Z,97663.31
2022-11-21T05:51:13.751Z,97665.28
2022-11-21T05:54:16.781Z,97672.63
2022-11-21T05:57:19.639Z,97663.06
2022-11-21T06:00:23.852Z,97669.47
2022-11-21T06:03:28.639Z,97669.16
2022-11-21T06:06:31.352Z,97675.09
2022-11-21T06:09:34.047Z,97668.88
2022-11-21T06:12:36.853Z,97667.63
2022-11-21T06:15:40.835Z,97666.06
2022-11-21T06:18:44.995Z,97667.50
2022-11-21T06:21:48.208Z,97670.38
2022-11-21T06:24:50.822Z,97666.56
2022-11-21T06:27:53.688Z,97674.38
2022-11-21T06:30:57.867Z,97667.19
2022-11-21T06:34:00.763Z,97670.38
2022-11-21T06:37:03.549Z,97668.16
2022-11-21T06:40:07.315Z,97672.78
2022-11-21T06:43:09.875Z,97662.75
2022-11-21T06:46:14.902Z,97675.16
2022-11-21T06:49:17.565Z,97677.56
2022-11-21T06:52:20.395Z,97679.75
2022-11-21T06:55:23.547Z,97678.94
2022-11-21T06:58:26.254Z,97675.56
2022-11-21T07:01:30.502Z,97686.06
2022-11-21T07:04:33.165Z,97689.69
2022-11-21T07:07:35.857Z,97683.63
2022-11-21T07:10:38.696Z,97681.66
2022-11-21T07:13:41.870Z,97677.91
2022-11-21T07:16:45.968Z,97676.28
2022-11-21T07:19:48.624Z,97682.81
2022-11-21T07:22:54.937Z,97680.34
2022-11-21T07:26:00.780Z,97673.72
2022-11-21T07:29:03.643Z,97674.06
2022-11-21T07:32:07.951Z,97667.38
2022-11-21T07:35:10.919Z,97668.72
2022-11-21T07:38:13.847Z,97673.34
2022-11-21T07:41:16.466Z,97677.16
2022-11-21T07:44:19.138Z,97680.16
2022-11-21T07:47:23.239Z,97674.97
2022-11-21T07:50:25.836Z,97678.19
2022-11-21T07:53:28.481Z,97678.00
2022-11-21T07:56:31.321Z,97676.00
2022-11-21T07:59:33.941Z,97680.75
2022-11-21T08:02:38.407Z,97677.16
2022-11-21T08:05:42.315Z,97681.28
2022-11-21T08:08:45.692Z,97675.94
2022-11-21T08:11:48.359Z,97682.38
2022-11-21T08:14:51.339Z,97680.66
2022-11-21T08:17:55.290Z,97677.78
2022-11-21T08:20:57.956Z,97673.34
2022-11-21T08:24:00.635Z,97661.25
2022-11-21T08:27:03.242Z,97668.91
2022-11-21T08:30:07.620Z,97659.19
2022-11-21T08:33:11.695Z,97663.44
2022-11-21T08:36:14.287Z,97663.16
2022-11-21T08:39:16.917Z,97665.88
2022-11-21T08:42:19.590Z,97665.72
2022-11-21T08:45:22.192Z,97665.59
2022-11-21T08:48:26.527Z,97663.53
2022-11-21T08:51:29.125Z,97664.94
2022-11-21T08:54:32.384Z,97655.84
2022-11-21T08:57:38.706Z,97652.81
2022-11-21T09:00:41.545Z,97654.09
2022-11-21T09:03:45.732Z,97650.91
2022-11-21T09:06:48.409Z,97651.69
2022-11-21T09:09:51.073Z,97654.81
2022-11-21T09:12:53.821Z,97642.56
2022-11-21T09:16:19.079Z,97629.75
2022-11-21T09:19:24.854Z,97629.56
2022-11-21T09:22:27.634Z,97635.63
2022-11-21T09:25:30.691Z,97641.69
2022-11-21T09:28:33.404Z,97634.38
2022-11-21T09:31:36.030Z,97643.94
2022-11-21T09:34:40.042Z,97637.13
2022-11-21T09:37:42.704Z,97636.41
2022-11-21T09:40:47.368Z,97635.50
2022-11-21T09:43:59.062Z,97637.47
2022-11-21T09:47:05.482Z,97646.19
2022-11-21T09:50:22.517Z,97637.44
2022-11-21T09:53:27.252Z,97631.13
2022-11-21T09:56:32.623Z,97617.94
2022-11-21T09:59:37.101Z,97615.78
2022-11-21T10:02:40.948Z,97608.97
2022-11-21T10:05:48.930Z,97610.50
2022-11-21T10:08:57.786Z,97599.03
2022-11-21T10:12:23.127Z,97592.25
2022-11-21T10:15:34.118Z,97579.59
2022-11-21T10:19:05.593Z,97577.06
2022-11-21T10:22:31.150Z,97562.44
2022-11-21T10:25:37.915Z,97560.66
2022-11-21T10:28:45.656Z,97556.09
2022-11-21T10:31:49.192Z,97546.44
2022-11-21T10:34:53.065Z,97530.78
2022-11-21T10:37:59.428Z,97536.56
2022-11-21T10:41:03.472Z,97544.38
2022-11-21T10:44:31.962Z,97547.06
2022-11-21T10:47:37.736Z,97534.19
2022-11-21T10:50:44.249Z,97525.91
2022-11-21T10:54:11.404Z,97515.81
2022-11-21T10:57:15.157Z,97502.22
2022-11-21T11:00:23.710Z,97497.06
2022-11-21T11:03:26.315Z,97493.06
2022-11-21T11:06:30.399Z,97492.25
2022-11-21T11:09:35.728Z,97484.09
2022-11-21T11:12:56.247Z,97479.97
2022-11-21T11:16:04.334Z,97467.25
2022-11-21T11:19:08.733Z,97459.78
2022-11-21T11:22:28.132Z,97452.50
2022-11-21T11:25:35.356Z,97453.09
2022-11-21T11:28:38.158Z,97447.16
2022-11-21T11:31:42.728Z,97440.50
2022-11-21T11:34:58.681Z,97436.94
2022-11-21T11:38:03.551Z,97424.56
2022-11-21T11:41:14.347Z,97425.81
2022-11-21T11:44:37.871Z,97417.34
2022-11-21T11:47:50.266Z,97412.53
2022-11-21T11:51:01.039Z,97413.13
2022-11-21T11:54:07.870Z,97404.41
2022-11-21T11:57:11.771Z,97401.63
2022-11-21T12:00:25.368Z,97400.38
2022-11-21T12:03:37.282Z,97406.81
2022-11-21T12:07:41.157Z,97393.22
2022-11-21T12:10:12.523Z,97393.09
2022-11-21T12:13:17.618Z,97387.56
2022-11-21T12:16:20.326Z,97374.31
2022-11-21T12:19:22.912Z,97385.31
2022-11-21T12:22:25.737Z,97370.69
2022-11-21T12:25:32.089Z,97369.59
2022-11-21T12:28:44.426Z,97359.16
2022-11-21T12:31:56.742Z,97353.66
2022-11-21T12:35:14.436Z,97337.66
2022-11-21T12:38:29.986Z,97337.16
2022-11-21T12:41:55.470Z,97331.16
2022-11-21T12:45:09.449Z,97319.72
2022-11-21T12:48:58.897Z,97314.63
2022-11-21T12:52:25.845Z,97323.06
2022-11-21T12:55:36.865Z,97302.63
2022-11-21T12:58:40.966Z,97299.13
2022-11-21T13:01:51.105Z,97284.97
2022-11-21T13:04:55.957Z,97283.03
2022-11-21T13:08:02.630Z,97268.59
2022-11-21T13:11:25.976Z,97258.28
2022-11-21T13:14:34.614Z,97255.25
2022-11-21T13:17:44.991Z,97254.81
2022-11-21T13:20:49.519Z,97249.31
2022-11-21T13:23:52.212Z,97248.56
2022-11-21T13:26:56.827Z,97238.44
2022-11-21T13:30:24.821Z,97232.13
2022-11-21T13:33:49.419Z,97226.19
2022-11-21T13:36:52.078Z,97213.34
2022-11-21T13:40:33.231Z,97217.66
2022-11-21T13:43:35.639Z,97215.00
2022-11-21T13:46:59.596Z,97209.22
2022-11-21T13:50:09.688Z,97200.38
2022-11-21T13:53:26.073Z,97188.22
2022-11-21T13:56:37.316Z,97183.38
2022-11-21T13:59:50.908Z,97179.47
2022-11-21T14:03:13.835Z,97177.69
2022-11-21T14:06:33.329Z,97172.41
2022-11-21T14:09:38.565Z,97168.53
2022-11-21T14:12:44.823Z,97160.16
2022-11-21T14:15:52.684Z,97153.63
2022-11-21T14:18:55.424Z,97149.91
2022-11-21T14:21:59.491Z,97141.03
2022-11-21T14:25:02.528Z,97151.75
2022-11-21T14:28:07.071Z,97138.03
2022-11-21T14:31:12.256Z,97142.56
2022-11-21T14:34:14.826Z,97137.63
2022-11-21T14:37:19.298Z,97127.06
2022-11-21T14:40:23.712Z,97120.66
2022-11-21T14:43:31.994Z,97117.47
2022-11-21T14:46:36.328Z,97119.91
2022-11-21T14:49:39.015Z,97116.41
2022-11-21T14:52:43.028Z,97112.06
2022-11-21T14:55:51.134Z,97107.00
2022-11-21T14:58:54.690Z,97102.28
2022-11-21T15:02:00.290Z,97096.88
2022-11-21T15:05:04.611Z,97081.63
2022-11-21T15:08:40.092Z,97068.88
2022-11-21T15:11:36.030Z,97053.25
2022-11-21T15:14:42.830Z,97046.22
2022-11-21T15:18:18.065Z,97037.47
2022-11-21T15:21:08.213Z,97019.47
2022-11-21T15:24:20.486Z,97009.78
2022-11-21T15:27:36.360Z,97009.13
2022-11-21T15:30:39.267Z,96995.25
2022-11-21T15:34:33.667Z,96977.75
2022-11-21T15:37:24.035Z,96971.84
2022-11-21T15:40:28.102Z,96956.94
2022-11-21T15:43:39.333Z,96962.50
2022-11-21T15:46:42.955Z,96949.75
2022-11-21T15:49:48.094Z,96936.69
2022-11-21T15:52:52.337Z,96925.16
2022-11-21T15:55:56.414Z,96916.59
2022-11-21T15:58:59.913Z,96912.00
2022-11-21T16:02:02.499Z,96912.94
2022-11-21T16:05:05.730Z,96910.44
2022-11-21T16:08:08.308Z,96896.28
2022-11-21T16:11:17.643Z,96901.94
2022-11-21T16:14:20.270Z,96893.66
2022-11-21T16:17:23.051Z,96896.38
2022-11-21T16:20:25.764Z,96888.81
2022-11-21T16:23:28.328Z,96881.38
2022-11-21T16:26:33.499Z,96881.38
2022-11-21T16:29:36.248Z,96875.50
2022-11-21T16:32:38.851Z,96859.09
2022-11-21T16:35:41.439Z,96855.13
2022-11-21T16:38:44.815Z,96836.03
2022-11-21T16:41:49.363Z,96830.69
2022-11-21T16:44:51.962Z,96831.50
2022-11-21T16:47:54.542Z,96827.66
2022-11-21T16:50:57.118Z,96838.63
2022-11-21T16:54:05.690Z,96842.34
2022-11-21T16:57:12.422Z,96837.47
2022-11-21T17:00:15.966Z,96836.22
2022-11-21T17:03:18.543Z,96828.22
2022-11-21T17:06:23.244Z,96818.50
2022-11-21T17:09:25.970Z,96813.78
2022-11-21T17:12:31.154Z,96814.22
2022-11-21T17:15:33.748Z,96814.13
2022-11-21T17:18:36.537Z,96802.00
2022-11-21T17:21:39.339Z,96802.13
2022-11-21T17:24:41.980Z,96799.78
2022-11-21T17:27:47.174Z,96792.75
2022-11-21T17:30:49.868Z,96780.66
2022-11-21T17:33:54.286Z,96795.56
2022-11-21T17:36:56.924Z,96800.00
2022-11-21T17:39:59.505Z,96780.22
2022-11-21T17:43:03.485Z,96770.50
2022-11-21T17:46:09.905Z,96745.97
2022-11-21T17:49:13.673Z,96746.75
2022-11-21T17:52:16.389Z,96759.75
2022-11-21T17:55:19.167Z,96756.59
2022-11-21T17:58:23.121Z,96740.78
2022-11-21T18:01:26.392Z,96743.25
2022-11-21T18:04:29.652Z,96743.84
2022-11-21T18:07:35.218Z,96739.41
2022-11-21T18:10:45.148Z,96736.94
2022-11-21T18:13:50.256Z,96731.06
2022-11-21T18:16:54.974Z,96732.84
2022-11-21T18:19:58.325Z,96743.91
2022-11-21T18:23:01.078Z,96731.59
2022-11-21T18:26:04.558Z,96726.28
2022-11-21T18:32:35.165Z,96724.22
2022-11-21T18:35:37.947Z,96735.50
2022-11-21T18:38:53.705Z,96739.34
2022-11-21T18:42:00.617Z,96734.38
2022-11-21T18:45:04.903Z,96732.47
2022-11-21T18:48:07.518Z,96741.47
2022-11-21T18:51:11.579Z,96735.72
2022-11-21T18:54:14.139Z,96721.16
2022-11-21T18:57:17.028Z,96721.28
2022-11-21T19:00:21.605Z,96709.31
2022-11-21T19:03:24.232Z,96710.91
2022-11-21T19:06:27.279Z,96707.16
2022-11-21T19:09:32.650Z,96700.97
2022-11-21T19:12:39.445Z,96694.19
2022-11-21T19:15:43.869Z,96696.13
2022-11-21T19:19:05.287Z,96698.72
2022-11-21T19:22:09.713Z,96701.78
2022-11-21T19:25:12.520Z,96688.22
2022-11-21T19:28:15.080Z,96688.56
2022-11-21T19:31:19.812Z,96675.66
2022-11-21T19:34:22.520Z,96678.50
2022-11-21T19:37:25.412Z,96673.84
2022-11-21T19:40:48.652Z,96681.28
2022-11-21T19:43:52.966Z,96672.50
2022-11-21T19:46:56.989Z,96660.06
2022-11-21T19:49:59.711Z,96661.63
2022-11-21T19:53:02.400Z,96671.13
2022-11-21T19:56:09.240Z,96656.97
2022-11-21T19:59:14.145Z,96661.25
2022-11-21T20:02:21.348Z,96656.16
2022-11-21T20:05:23.929Z,96667.38
2022-11-21T20:08:26.554Z,96665.44
2022-11-21T20:11:31.350Z,96664.41
2022-11-21T20:14:33.941Z,96654.78
2022-11-21T20:17:38.031Z,96662.00
2022-11-21T20:20:40.807Z,96657.47
2022-11-21T20:23:43.845Z,96662.69
2022-11-21T20:26:46.587Z,96668.13
2022-11-21T20:29:49.297Z,96662.69
2022-11-21T20:32:53.501Z,96665.34
2022-11-21T20:35:56.201Z,96672.13
2022-11-21T20:39:00.693Z,96665.91
2022-11-21T20:42:03.393Z,96673.25
2022-11-21T20:48:31.117Z,96673.59
2022-11-21T20:53:06.218Z,96680.59
2022-11-21T20:54:56.719Z,96667.91
2022-11-21T20:57:59.582Z,96654.69
2022-11-21T21:01:02.639Z,96645.41
2022-11-21T21:04:06.893Z,96650.47
2022-11-21T21:07:09.692Z,96664.53
2022-11-21T21:10:12.444Z,96654.09
2022-11-21T21:13:15.024Z,96656.47
2022-11-21T21:16:21.416Z,96649.44
2022-11-21T21:19:25.339Z,96647.88
2022-11-21T21:22:28.897Z,96638.59
2022-11-21T21:25:31.579Z,96643.66
2022-11-21T21:28:34.196Z,96638.59
2022-11-21T21:31:36.896Z,96638.59
2022-11-21T21:34:41.351Z,96636.31
2022-11-21T21:37:43.919Z,96632.47
2022-11-21T21:40:46.603Z,96646.31
2022-11-21T21:43:50.078Z,96632.91
2022-11-21T21:46:52.732Z,96630.34
2022-11-21T21:49:56.678Z,96631.59
2022-11-21T21:53:01.359Z,96628.81
2022-11-21T21:56:04.604Z,96621.81
2022-11-21T21:59:07.200Z,96624.94
2022-11-21T22:02:12.161Z,96622.50
2022-11-21T22:05:16.128Z,96626.88
2022-11-21T22:08:18.995Z,96630.09
2022-11-21T22:11:23.408Z,96625.66
2022-11-21T22:14:25.956Z,96630.38
2022-11-21T22:17:29.024Z,96624.44
2022-11-21T22:20:33.124Z,96644.06
2022-11-21T22:23:35.789Z,96646.16
2022-11-21T22:26:38.377Z,96634.97
2022-11-21T22:29:42.114Z,96639.09
2022-11-21T22:32:44.609Z,96634.88
2022-11-21T22:35:48.560Z,96633.31
2022-11-21T22:38:53.765Z,96641.34
2022-11-21T22:41:59.820Z,96642.50
2022-11-21T22:45:02.668Z,96636.81
2022-11-21T22:48:06.769Z,96629.44
2022-11-21T22:51:14.092Z,96631.47
2022-11-21T22:54:16.687Z,96638.81
2022-11-21T22:57:19.752Z,96636.69
2022-11-21T23:00:22.511Z,96635.50
2022-11-21T23:03:25.294Z,96633.81
2022-11-21T23:06:29.202Z,96641.34
2022-11-21T23:09:32.309Z,96639.41
2022-11-21T23:12:35.249Z,96639.03
2022-11-21T23:15:37.957Z,96631.16
2022-11-21T23:18:40.879Z,96613.28
2022-11-21T23:21:45.157Z,96600.81
2022-11-21T23:24:47.985Z,96591.44
2022-11-21T23:27:50.965Z,96576.72
2022-11-21T23:30:53.630Z,96565.25
2022-11-21T23:33:56.322Z,96578.38
2022-11-21T23:37:00.283Z,96598.25
2022-11-21T23:40:02.997Z,96595.09
2022-11-21T23:43:05.764Z,96587.19
2022-11-21T23:46:08.325Z,96592.19
2022-11-21T23:49:10.933Z,96598.72
2022-11-21T23:52:15.017Z,96592.63
2022-11-21T23:55:18.055Z,96598.47
2022-11-21T23:58:20.624Z,96598.59
